Time;durP1;ratioP1;P1;durP2;ratioP2;P2;SDS_P1;SDS_P2;PMS_P1;PMS_P2;Temp;Humidity;BMP_temperature;BMP_pressure;BME280_temperature;BME280_humidity;BME280_pressure;Samples;Min_cycle;Max_cycle;Signal;HPM_P1;HPM_P2
2023/08/06 00:02:25;;;;;;;2.40;2.30;;;21.50;74.80;22.20;99643.00;;;;6273906;22;20535;-52
2023/08/06 00:04:51;;;;;;;2.50;2.30;;;21.50;74.90;22.20;99640.00;;;;6273540;22;20148;-52
2023/08/06 00:07:16;;;;;;;2.60;2.40;;;21.50;74.80;22.20;99632.00;;;;6270159;22;20168;-53
2023/08/06 00:09:42;;;;;;;2.63;2.43;;;21.50;74.80;22.20;99622.00;;;;6270391;22;20145;-53
2023/08/06 00:12:08;;;;;;;2.53;2.33;;;21.50;74.80;22.20;99628.00;;;;6270780;22;20169;-52
2023/08/06 00:14:34;;;;;;;2.63;2.43;;;21.50;74.90;22.20;99625.00;;;;6270615;22;20218;-52
2023/08/06 00:17:00;;;;;;;2.70;2.50;;;21.40;74.70;22.20;99630.00;;;;6274686;22;20161;-52
2023/08/06 00:19:25;;;;;;;3.00;2.50;;;21.40;74.70;22.20;99626.00;;;;6271845;22;20632;-52
2023/08/06 00:21:51;;;;;;;2.50;2.30;;;21.40;74.70;22.20;99615.00;;;;6268481;22;20618;-52
2023/08/06 00:24:17;;;;;;;2.53;2.33;;;21.40;74.70;22.20;99615.00;;;;6270311;22;20145;-52
2023/08/06 00:26:42;;;;;;;2.30;2.20;;;21.40;74.70;22.10;99615.00;;;;6270103;22;20198;-52
2023/08/06 00:29:08;;;;;;;2.73;2.53;;;21.40;74.70;22.20;99618.00;;;;6270213;22;20502;-52
2023/08/06 00:31:34;;;;;;;2.50;2.30;;;21.40;74.70;22.20;99609.00;;;;6270257;22;20161;-52
2023/08/06 00:33:59;;;;;;;2.60;2.40;;;21.40;74.70;22.10;99614.00;;;;6270220;22;20152;-53
2023/08/06 00:36:25;;;;;;;2.47;2.30;;;21.40;74.70;22.10;99609.00;;;;6270318;22;20497;-52
2023/08/06 00:38:51;;;;;;;2.70;2.40;;;21.40;74.70;22.10;99622.00;;;;6270300;22;20220;-52
2023/08/06 00:41:17;;;;;;;2.53;2.33;;;21.40;74.70;22.10;99612.00;;;;6243045;22;20215;-53
2023/08/06 00:43:43;;;;;;;2.53;2.33;;;21.40;74.70;22.10;99604.00;;;;6270598;22;20536;-52
2023/08/06 00:46:09;;;;;;;2.80;2.60;;;21.30;74.60;22.10;99615.00;;;;6269823;22;20149;-52
2023/08/06 00:48:34;;;;;;;2.60;2.40;;;21.30;74.70;22.10;99617.00;;;;6243297;22;20176;-53
2023/08/06 00:51:01;;;;;;;2.43;2.23;;;21.30;74.70;22.10;99605.00;;;;6268443;22;20187;-52
2023/08/06 00:53:26;;;;;;;2.50;2.30;;;21.30;74.70;22.10;99627.00;;;;6243327;22;20157;-53
2023/08/06 00:55:52;;;;;;;2.63;2.43;;;21.30;74.70;22.10;99623.00;;;;6270348;22;20538;-52
2023/08/06 00:58:18;;;;;;;2.47;2.27;;;21.30;74.70;22.10;99621.00;;;;6270293;22;20172;-53
2023/08/06 01:00:43;;;;;;;2.83;2.63;;;21.30;74.80;22.10;99627.00;;;;6243379;22;20176;-52
2023/08/06 01:03:09;;;;;;;2.60;2.40;;;21.30;74.70;22.10;99621.00;;;;6270551;22;20153;-53
2023/08/06 01:05:35;;;;;;;2.47;2.27;;;21.40;74.80;22.10;99620.00;;;;6270278;22;20566;-53
2023/08/06 01:08:19;;;;;;;3.20;2.43;;;21.30;74.90;22.10;99597.00;;;;6268279;22;20601;-53
2023/08/06 01:11:07;;;;;;;3.07;2.30;;;21.30;74.90;22.10;99607.00;;;;6246537;22;20165;-53
2023/08/06 01:13:49;;;;;;;2.97;2.40;;;21.30;75.00;22.10;99610.00;;;;6272134;22;20133;-52
2023/08/06 01:16:16;;;;;;;2.60;2.40;;;21.30;75.00;22.10;99593.00;;;;6244856;22;20141;-53
2023/08/06 01:18:45;;;;;;;2.60;2.40;;;21.30;74.90;22.10;99593.00;;;;6245288;22;20144;-53
2023/08/06 01:21:14;;;;;;;2.70;2.50;;;21.30;75.00;22.10;99597.00;;;;6271793;22;20165;-52
2023/08/06 01:23:40;;;;;;;2.60;2.40;;;21.30;74.90;22.10;99594.00;;;;6272024;22;20149;-52
2023/08/06 01:26:33;;;;;;;2.53;2.33;;;21.30;74.90;22.10;99591.00;;;;6271753;22;20175;-52
2023/08/06 01:29:15;;;;;;;2.50;2.30;;;21.30;74.90;22.10;99601.00;;;;6271920;22;20168;-53
2023/08/06 01:31:43;;;;;;;2.90;2.50;;;21.30;74.90;22.10;99590.00;;;;6245879;22;20621;-53
2023/08/06 01:34:17;;;;;;;2.50;2.30;;;21.30;74.80;22.00;99591.00;;;;6220199;22;20145;-52
2023/08/06 01:36:43;;;;;;;2.27;2.10;;;21.30;74.80;22.00;99586.00;;;;6244635;22;20130;-52
2023/08/06 01:39:08;;;;;;;2.60;2.40;;;21.20;74.70;22.00;99588.00;;;;6244782;22;20251;-53
2023/08/06 01:41:34;;;;;;;2.67;2.30;;;21.30;74.80;22.00;99592.00;;;;6270287;22;20222;-52
2023/08/06 01:44:00;;;;;;;3.23;2.50;;;21.20;74.70;22.00;99570.00;;;;6271971;22;20274;-52
2023/08/06 01:46:25;;;;;;;2.50;2.30;;;21.20;74.80;22.00;99582.00;;;;6271827;22;20687;-53
2023/08/06 01:48:51;;;;;;;2.70;2.50;;;21.20;74.70;22.00;99567.00;;;;6271642;22;20501;-52
2023/08/06 01:51:17;;;;;;;2.50;2.30;;;21.20;74.70;22.00;99577.00;;;;6271364;22;20261;-52
2023/08/06 01:53:43;;;;;;;2.97;2.63;;;21.20;74.70;22.00;99587.00;;;;6271714;22;20152;-52
2023/08/06 01:56:08;;;;;;;2.57;2.37;;;21.20;74.80;21.90;99579.00;;;;6271446;22;20156;-53
2023/08/06 01:58:34;;;;;;;2.50;2.30;;;21.20;74.80;21.90;99579.00;;;;6273235;22;20222;-52
2023/08/06 02:01:01;;;;;;;2.47;2.27;;;21.20;74.70;21.90;99577.00;;;;6275916;22;20187;-53
2023/08/06 02:03:27;;;;;;;2.50;2.30;;;21.20;74.80;21.90;99571.00;;;;6270252;22;20145;-52
2023/08/06 02:05:53;;;;;;;2.67;2.47;;;21.20;74.70;21.90;99564.00;;;;6271633;22;20252;-53
2023/08/06 02:08:19;;;;;;;2.73;2.33;;;21.20;74.70;21.90;99565.00;;;;6271147;22;20184;-52
2023/08/06 02:10:45;;;;;;;2.60;2.40;;;21.10;74.70;21.90;99555.00;;;;6270017;22;20161;-53
2023/08/06 02:13:11;;;;;;;2.50;2.30;;;21.10;74.60;21.90;99561.00;;;;6275082;22;20224;-52
2023/08/06 02:15:47;;;;;;;2.50;2.30;;;21.10;74.60;21.90;99560.00;;;;6274037;22;20149;-51
2023/08/06 02:18:14;;;;;;;2.40;2.20;;;21.10;74.60;21.90;99552.00;;;;6271041;22;20613;-52
2023/08/06 02:20:40;;;;;;;2.40;2.20;;;21.10;74.60;21.80;99556.00;;;;6271018;22;20517;-52
2023/08/06 02:23:06;;;;;;;2.90;2.63;;;21.10;74.70;21.80;99548.00;;;;6269370;22;20164;-51
2023/08/06 02:25:32;;;;;;;3.13;2.50;;;21.10;74.60;21.90;99564.00;;;;6269629;22;20150;-53
2023/08/06 02:27:57;;;;;;;2.60;2.40;;;21.10;74.60;21.90;99567.00;;;;6269510;22;20177;-53
2023/08/06 02:30:23;;;;;;;2.60;2.40;;;21.10;74.60;21.80;99563.00;;;;6271193;22;20180;-53
2023/08/06 02:32:49;;;;;;;2.43;2.23;;;21.10;74.70;21.80;99561.00;;;;6271291;22;20149;-53
2023/08/06 02:35:15;;;;;;;2.60;2.40;;;21.10;74.60;21.80;99551.00;;;;6271225;22;20678;-53
2023/08/06 02:37:40;;;;;;;3.00;2.70;;;21.00;74.50;21.80;99555.00;;;;6269555;22;20186;-54
2023/08/06 02:40:07;;;;;;;2.43;2.23;;;21.00;74.60;21.80;99539.00;;;;6270934;22;20153;-53
2023/08/06 02:42:32;;;;;;;2.67;2.47;;;21.00;74.60;21.80;99544.00;;;;6271463;22;20152;-53
2023/08/06 02:44:58;;;;;;;2.60;2.40;;;21.00;74.60;21.80;99545.00;;;;6271375;22;20149;-54
2023/08/06 02:47:24;;;;;;;2.60;2.40;;;21.10;74.70;21.80;99547.00;;;;6270974;22;20705;-53
2023/08/06 02:49:50;;;;;;;2.60;2.40;;;21.00;74.60;21.80;99546.00;;;;6271452;22;20141;-53
2023/08/06 02:52:15;;;;;;;2.60;2.40;;;21.00;74.60;21.80;99551.00;;;;6271201;22;20176;-53
2023/08/06 02:54:41;;;;;;;2.63;2.40;;;21.00;74.70;21.70;99539.00;;;;6271223;22;20145;-53
2023/08/06 02:57:07;;;;;;;2.90;2.70;;;21.00;74.60;21.80;99533.00;;;;6270905;22;20145;-53
2023/08/06 02:59:32;;;;;;;2.60;2.40;;;21.00;74.60;21.80;99533.00;;;;6271170;22;20516;-53
2023/08/06 03:01:58;;;;;;;2.53;2.33;;;21.00;74.60;21.70;99523.00;;;;6271936;22;20256;-52
2023/08/06 03:04:24;;;;;;;2.60;2.40;;;21.00;75.40;21.70;99520.00;;;;6272848;22;20145;-52
2023/08/06 03:06:50;;;;;;;2.60;2.40;;;21.00;74.60;21.80;99520.00;;;;6272211;22;20141;-51
2023/08/06 03:09:19;;;;;;;2.33;2.20;;;21.00;74.60;21.70;99501.00;;;;6272731;22;20547;-53
2023/08/06 03:11:45;;;;;;;2.80;2.60;;;21.00;74.60;21.70;99515.00;;;;6272407;22;20562;-51
2023/08/06 03:14:11;;;;;;;2.63;2.40;;;21.00;74.60;21.80;99495.00;;;;6272411;22;20142;-53
2023/08/06 03:16:36;;;;;;;2.37;2.17;;;20.90;74.50;21.70;99510.00;;;;6244988;22;20164;-52
2023/08/06 03:19:02;;;;;;;3.07;2.23;;;21.00;74.60;21.70;99510.00;;;;6272398;22;20156;-52
2023/08/06 03:21:28;;;;;;;2.50;2.30;;;21.00;74.70;21.80;99511.00;;;;6272194;22;20608;-53
2023/08/06 03:23:53;;;;;;;4.90;2.40;;;21.00;74.70;21.80;99514.00;;;;6245072;22;20760;-53
2023/08/06 03:26:19;;;;;;;3.10;2.50;;;20.90;74.70;21.80;99503.00;;;;6271853;22;20203;-52
2023/08/06 03:28:45;;;;;;;3.23;2.60;;;21.00;74.70;21.80;99508.00;;;;6272212;22;20710;-53
2023/08/06 03:31:11;;;;;;;3.00;2.23;;;21.00;74.70;21.80;99501.00;;;;6269554;22;20180;-53
2023/08/06 03:33:36;;;;;;;2.50;2.30;;;21.00;74.70;21.70;99506.00;;;;6271392;22;20152;-52
2023/08/06 03:36:02;;;;;;;2.60;2.27;;;20.90;74.60;21.70;99503.00;;;;6271909;22;20155;-53
2023/08/06 03:38:28;;;;;;;3.33;2.47;;;20.90;74.60;21.70;99511.00;;;;6272066;22;20159;-53
2023/08/06 03:40:54;;;;;;;2.60;2.20;;;20.90;74.70;21.70;99517.00;;;;6271912;22;20168;-53
2023/08/06 03:43:20;;;;;;;2.50;2.30;;;20.90;74.70;21.70;99517.00;;;;6272069;22;20229;-51
2023/08/06 03:45:45;;;;;;;3.00;2.33;;;20.90;74.70;21.70;99508.00;;;;6271892;22;20156;-52
2023/08/06 03:48:11;;;;;;;2.60;2.40;;;20.90;74.80;21.70;99501.00;;;;6271955;22;20169;-53
2023/08/06 03:50:38;;;;;;;4.33;2.50;;;20.80;74.70;21.70;99505.00;;;;6272540;22;20294;-53
2023/08/06 03:53:03;;;;;;;2.50;2.27;;;20.80;74.70;21.70;99511.00;;;;6273219;22;20152;-51
2023/08/06 03:55:29;;;;;;;2.60;2.40;;;20.80;74.70;21.60;99511.00;;;;6276934;22;20149;-52
2023/08/06 03:57:55;;;;;;;2.60;2.40;;;20.80;74.70;21.60;99504.00;;;;6274382;22;20145;-52
2023/08/06 04:00:20;;;;;;;2.43;2.07;;;20.80;74.70;21.60;99504.00;;;;6271426;22;20744;-52
2023/08/06 04:02:46;;;;;;;2.37;2.17;;;20.80;74.70;21.60;99507.00;;;;6271402;22;20156;-53
2023/08/06 04:05:12;;;;;;;3.53;2.30;;;20.80;74.70;21.60;99502.00;;;;6269573;22;20153;-52
2023/08/06 04:07:38;;;;;;;2.70;2.37;;;20.80;74.70;21.60;99507.00;;;;6271206;22;20173;-52
2023/08/06 04:10:05;;;;;;;2.63;2.10;;;20.80;74.70;21.60;99511.00;;;;6278420;22;20171;-52
2023/08/06 04:12:31;;;;;;;2.67;2.47;;;20.80;74.70;21.60;99514.00;;;;6272942;22;20165;-53
2023/08/06 04:14:58;;;;;;;2.57;2.37;;;20.80;74.70;21.60;99510.00;;;;6267369;22;20159;-53
2023/08/06 04:17:24;;;;;;;3.07;2.33;;;20.80;74.80;21.60;99507.00;;;;6269401;22;20636;-53
2023/08/06 04:19:53;;;;;;;2.20;2.00;;;20.80;74.80;21.60;99510.00;;;;6269582;22;20181;-53
2023/08/06 04:22:19;;;;;;;2.40;2.20;;;20.80;74.80;21.60;99515.00;;;;6271204;22;20177;-53
2023/08/06 04:24:45;;;;;;;2.60;2.20;;;20.80;74.80;21.60;99510.00;;;;6270845;22;20251;-53
2023/08/06 04:27:11;;;;;;;2.60;2.40;;;20.80;74.80;21.60;99507.00;;;;6270524;22;20255;-53
2023/08/06 04:29:37;;;;;;;2.57;2.37;;;20.70;74.80;21.60;99509.00;;;;6269436;22;20171;-52
2023/08/06 04:32:06;;;;;;;2.73;2.30;;;20.80;74.90;21.60;99507.00;;;;6271072;22;20165;-52
2023/08/06 04:34:31;;;;;;;2.47;2.23;;;20.70;74.90;21.60;99505.00;;;;6270965;22;20145;-53
2023/08/06 04:36:57;;;;;;;2.47;2.27;;;20.80;75.00;21.60;99506.00;;;;6270241;22;20601;-54
2023/08/06 04:39:23;;;;;;;2.40;2.20;;;20.70;75.00;21.50;99505.00;;;;6271019;22;20164;-54
2023/08/06 04:41:48;;;;;;;2.57;2.20;;;20.70;75.00;21.50;99505.00;;;;6270978;22;20169;-54
2023/08/06 04:44:14;;;;;;;2.30;2.10;;;20.70;75.00;21.50;99507.00;;;;6271091;22;20198;-54
2023/08/06 04:46:40;;;;;;;2.93;2.30;;;20.70;75.00;21.50;99506.00;;;;6271974;22;20156;-52
2023/08/06 04:49:05;;;;;;;2.60;2.40;;;20.70;75.00;21.50;99492.00;;;;6273169;22;20625;-54
2023/08/06 04:51:31;;;;;;;2.80;2.43;;;20.70;75.00;21.50;99503.00;;;;6271915;22;20161;-52
2023/08/06 04:53:57;;;;;;;3.20;2.60;;;20.70;75.40;21.50;99502.00;;;;6273174;22;20675;-53
2023/08/06 04:56:23;;;;;;;3.40;2.63;;;20.70;75.30;21.50;99503.00;;;;6272243;22;20219;-53
2023/08/06 04:58:49;;;;;;;3.70;2.50;;;20.70;75.20;21.60;99504.00;;;;6273022;22;20664;-53
2023/08/06 05:01:15;;;;;;;3.83;2.47;;;20.70;75.10;21.60;99497.00;;;;6271815;22;20169;-53
2023/08/06 05:03:40;;;;;;;3.13;2.30;;;20.80;75.20;21.60;99504.00;;;;6272754;22;20686;-54
2023/08/06 05:06:06;;;;;;;4.17;2.60;;;20.70;75.20;21.60;99510.00;;;;6272090;22;20183;-54
2023/08/06 05:08:32;;;;;;;3.60;2.23;;;20.70;75.30;21.60;99511.00;;;;6271449;22;20256;-55
2023/08/06 05:10:58;;;;;;;3.97;2.37;;;20.70;75.30;21.60;99502.00;;;;6272380;22;20173;-53
2023/08/06 05:13:25;;;;;;;2.40;2.20;;;20.70;75.20;21.60;99510.00;;;;6271631;22;20149;-54
2023/08/06 05:15:51;;;;;;;4.00;2.33;;;20.70;75.40;21.60;99504.00;;;;6272376;22;20223;-54
2023/08/06 05:18:16;;;;;;;2.30;2.10;;;20.70;75.40;21.60;99502.00;;;;6245179;22;20168;-53
2023/08/06 05:20:43;;;;;;;2.83;2.40;;;20.70;75.40;21.60;99505.00;;;;6272340;22;20169;-53
2023/08/06 05:23:08;;;;;;;2.67;2.43;;;20.70;75.40;21.60;99516.00;;;;6272637;22;20153;-53
2023/08/06 05:25:35;;;;;;;2.70;2.50;;;20.70;75.40;21.50;99510.00;;;;6272539;22;20171;-54
2023/08/06 05:28:02;;;;;;;2.60;2.40;;;20.70;75.40;21.50;99506.00;;;;6272472;22;20677;-53
2023/08/06 05:30:28;;;;;;;3.13;2.37;;;20.70;75.40;21.50;99506.00;;;;6273047;22;20539;-54
2023/08/06 05:32:53;;;;;;;2.30;2.10;;;20.60;75.40;21.50;99513.00;;;;6272711;22;20148;-54
2023/08/06 05:35:19;;;;;;;2.50;2.30;;;20.60;75.30;21.50;99509.00;;;;6272317;22;20153;-53
2023/08/06 05:37:45;;;;;;;2.40;2.20;;;20.70;75.40;21.50;99520.00;;;;6272356;22;20153;-54
2023/08/06 05:40:11;;;;;;;2.53;2.30;;;20.60;75.30;21.50;99513.00;;;;6270585;22;20552;-53
2023/08/06 05:42:37;;;;;;;2.40;2.20;;;20.60;75.40;21.50;99513.00;;;;6271017;22;20203;-53
2023/08/06 05:45:02;;;;;;;2.50;2.30;;;20.60;75.40;21.50;99519.00;;;;6272275;22;20152;-53
2023/08/06 05:47:28;;;;;;;2.40;2.20;;;20.70;75.40;21.50;99524.00;;;;6273090;22;20180;-52
2023/08/06 05:49:54;;;;;;;2.40;2.20;;;20.70;75.40;21.50;99523.00;;;;6272785;22;20151;-53
2023/08/06 05:52:20;;;;;;;2.20;1.97;;;20.60;75.40;21.50;99518.00;;;;6273225;22;20180;-52
2023/08/06 05:54:45;;;;;;;2.40;2.20;;;20.60;75.40;21.50;99518.00;;;;6271682;22;20153;-53
2023/08/06 05:57:11;;;;;;;2.30;2.10;;;20.60;75.40;21.50;99523.00;;;;6271529;22;20141;-52
2023/08/06 05:59:37;;;;;;;2.13;2.03;;;20.60;75.40;21.50;99525.00;;;;6270601;22;20146;-55
2023/08/06 06:02:03;;;;;;;2.20;2.03;;;20.60;75.40;21.50;99522.00;;;;6272043;22;20169;-53
2023/08/06 06:04:29;;;;;;;2.00;1.90;;;20.60;75.40;21.50;99518.00;;;;6272798;22;20516;-55
2023/08/06 06:06:55;;;;;;;2.40;2.00;;;20.60;75.40;21.50;99521.00;;;;6274430;22;20149;-53
2023/08/06 06:09:20;;;;;;;2.40;2.20;;;20.60;75.40;21.50;99527.00;;;;6270297;22;20811;-52
2023/08/06 06:11:47;;;;;;;2.67;2.20;;;20.60;75.50;21.50;99519.00;;;;6271472;22;20169;-54
2023/08/06 06:14:13;;;;;;;2.50;2.30;;;20.60;75.50;21.50;99526.00;;;;6270593;22;20153;-52
2023/08/06 06:16:39;;;;;;;2.93;2.20;;;20.60;75.50;21.50;99524.00;;;;6271764;22;20164;-52
2023/08/06 06:19:04;;;;;;;2.53;2.17;;;20.60;75.50;21.50;99519.00;;;;6272147;22;20609;-52
2023/08/06 06:21:30;;;;;;;2.60;2.07;;;20.70;75.40;21.50;99536.00;;;;6270414;22;20168;-52
2023/08/06 06:23:56;;;;;;;2.40;2.20;;;20.70;75.40;21.50;99531.00;;;;6271837;22;20145;-52
2023/08/06 06:26:22;;;;;;;2.27;2.07;;;20.60;75.40;21.50;99540.00;;;;6271269;22;20184;-52
2023/08/06 06:28:48;;;;;;;2.50;2.30;;;20.70;75.60;21.50;99542.00;;;;6271835;22;20201;-52
2023/08/06 06:31:13;;;;;;;2.87;2.27;;;20.70;75.60;21.50;99542.00;;;;6271911;22;20168;-52
2023/08/06 06:33:39;;;;;;;2.20;2.00;;;20.60;75.60;21.50;99556.00;;;;6271937;22;20152;-52
2023/08/06 06:36:07;;;;;;;2.30;2.10;;;20.60;75.60;21.50;99548.00;;;;6271765;22;20203;-52
2023/08/06 06:38:34;;;;;;;2.40;2.20;;;20.60;75.60;21.40;99542.00;;;;6270734;22;20145;-52
2023/08/06 06:40:59;;;;;;;2.40;2.20;;;20.60;75.60;21.50;99551.00;;;;6272129;22;20621;-52
2023/08/06 06:43:25;;;;;;;2.37;2.17;;;20.60;75.60;21.50;99552.00;;;;6272036;22;20145;-53
2023/08/06 06:45:58;;;;;;;2.20;2.00;;;20.60;75.60;21.40;99547.00;;;;6271729;22;20149;-51
2023/08/06 06:48:27;;;;;;;2.53;1.97;;;20.60;75.60;21.40;99549.00;;;;6271358;22;20208;-53
2023/08/06 06:50:52;;;;;;;2.40;2.10;;;20.60;75.60;21.40;99553.00;;;;6270788;22;20215;-53
2023/08/06 06:53:18;;;;;;;2.40;2.20;;;20.60;76.40;21.40;99533.00;;;;6271490;22;20145;-53
2023/08/06 06:55:44;;;;;;;2.20;2.10;;;20.60;76.40;21.40;99546.00;;;;6271688;22;20148;-53
2023/08/06 06:58:09;;;;;;;2.40;2.20;;;20.60;75.60;21.40;99546.00;;;;6269682;22;20184;-53
2023/08/06 07:00:38;;;;;;;2.33;2.13;;;20.60;75.60;21.40;99543.00;;;;6271134;22;20636;-51
2023/08/06 07:03:04;;;;;;;2.83;1.90;;;20.60;75.70;21.40;99550.00;;;;6271138;22;20155;-51
2023/08/06 07:05:30;;;;;;;2.17;1.97;;;20.60;75.60;21.40;99549.00;;;;6271359;22;20176;-52
2023/08/06 07:07:56;;;;;;;2.20;2.00;;;20.60;75.60;21.40;99548.00;;;;6269192;22;20547;-51
2023/08/06 07:10:21;;;;;;;2.30;2.10;;;20.60;75.70;21.40;99549.00;;;;6272053;22;20547;-52
2023/08/06 07:12:47;;;;;;;3.27;2.00;;;20.60;75.80;21.40;99549.00;;;;6271483;22;20145;-52
2023/08/06 07:15:13;;;;;;;2.50;2.00;;;20.60;75.70;21.40;99549.00;;;;6270851;22;20195;-52
2023/08/06 07:17:38;;;;;;;2.30;2.10;;;20.60;75.60;21.40;99545.00;;;;6271106;22;20203;-52
2023/08/06 07:20:06;;;;;;;2.20;2.10;;;20.60;75.70;21.40;99553.00;;;;6271790;22;20145;-52
2023/08/06 07:22:32;;;;;;;2.27;2.00;;;20.60;75.80;21.40;99550.00;;;;6270385;22;20160;-52
2023/08/06 07:24:57;;;;;;;2.13;1.93;;;20.60;75.80;21.40;99553.00;;;;6270133;22;20149;-52
2023/08/06 07:27:24;;;;;;;1.90;1.80;;;20.60;75.70;21.40;99566.00;;;;6270452;22;20562;-51
2023/08/06 07:29:50;;;;;;;2.13;2.03;;;20.60;75.70;21.40;99564.00;;;;6271808;22;20156;-52
2023/08/06 07:32:16;;;;;;;2.10;1.90;;;20.60;75.60;21.40;99561.00;;;;6271119;22;20173;-53
2023/08/06 07:34:41;;;;;;;2.00;1.90;;;20.60;75.60;21.40;99554.00;;;;6271502;22;20638;-53
2023/08/06 07:37:07;;;;;;;2.10;2.00;;;20.60;75.70;21.40;99556.00;;;;6270878;22;20149;-53
2023/08/06 07:39:33;;;;;;;2.00;1.90;;;20.60;75.60;21.40;99565.00;;;;6270375;22;20148;-53
2023/08/06 07:41:59;;;;;;;2.40;1.80;;;20.60;75.70;21.50;99561.00;;;;6271256;22;20165;-53
2023/08/06 07:44:24;;;;;;;2.10;2.00;;;20.60;75.60;21.50;99557.00;;;;6271785;22;20149;-53
2023/08/06 07:46:50;;;;;;;2.00;1.90;;;20.70;75.70;21.50;99552.00;;;;6270993;22;20179;-53
2023/08/06 07:49:16;;;;;;;2.10;1.90;;;20.60;75.80;21.50;99568.00;;;;6273373;22;20183;-53
2023/08/06 07:51:41;;;;;;;2.63;1.90;;;20.60;75.80;21.50;99576.00;;;;6269618;22;20168;-53
2023/08/06 07:54:07;;;;;;;1.97;1.87;;;20.60;75.90;21.50;99575.00;;;;6271413;22;20141;-53
2023/08/06 07:56:33;;;;;;;2.00;1.90;;;20.60;75.90;21.50;99580.00;;;;6270278;22;20184;-53
2023/08/06 07:58:59;;;;;;;2.27;1.90;;;20.60;75.90;21.50;99573.00;;;;6270574;22;20145;-53
2023/08/06 08:01:25;;;;;;;2.00;1.90;;;20.60;76.00;21.50;99570.00;;;;6270470;22;20173;-51
2023/08/06 08:03:50;;;;;;;2.70;1.90;;;20.60;76.10;21.50;99571.00;;;;6274441;22;20488;-52
2023/08/06 08:06:16;;;;;;;2.23;2.07;;;20.60;76.00;21.50;99569.00;;;;6267584;22;20754;-51
2023/08/06 08:08:42;;;;;;;2.00;1.90;;;20.60;76.00;21.50;99573.00;;;;6268516;22;20789;-53
2023/08/06 08:11:08;;;;;;;2.03;1.90;;;20.60;76.00;21.50;99570.00;;;;6271165;22;20625;-53
2023/08/06 08:13:34;;;;;;;3.43;2.10;;;20.60;76.00;21.50;99574.00;;;;6271384;22;20154;-53
2023/08/06 08:16:00;;;;;;;2.43;1.90;;;20.60;76.00;21.50;99507.00;;;;6270537;22;20499;-53
2023/08/06 08:18:26;;;;;;;1.93;1.83;;;20.60;76.00;21.50;99573.00;;;;6270626;22;20506;-52
2023/08/06 08:20:51;;;;;;;2.10;2.00;;;20.60;76.10;21.40;99516.00;;;;6270719;22;20172;-53
2023/08/06 08:23:17;;;;;;;2.10;1.90;;;20.60;76.10;21.50;99579.00;;;;6270764;22;20159;-52
2023/08/06 08:25:43;;;;;;;2.10;1.90;;;20.60;76.10;21.50;99583.00;;;;6270383;22;20155;-52
2023/08/06 08:28:08;;;;;;;2.00;1.90;;;20.60;76.20;21.40;99580.00;;;;6270509;22;20175;-52
2023/08/06 08:30:34;;;;;;;1.93;1.83;;;20.60;76.10;21.50;99586.00;;;;6270653;22;20168;-52
2023/08/06 08:33:00;;;;;;;1.90;1.80;;;20.60;76.00;21.40;99593.00;;;;6271278;22;20595;-52
2023/08/06 08:35:26;;;;;;;2.13;1.97;;;20.60;76.10;21.50;99595.00;;;;6269986;22;20590;-52
2023/08/06 08:37:51;;;;;;;2.17;2.00;;;20.60;76.10;21.50;99598.00;;;;6269939;22;20236;-52
2023/08/06 08:40:17;;;;;;;2.00;1.90;;;20.60;76.10;21.50;99586.00;;;;6269410;22;20164;-52
2023/08/06 08:42:43;;;;;;;2.00;1.90;;;20.60;76.10;21.50;99590.00;;;;6271120;22;20152;-51
2023/08/06 08:45:13;;;;;;;2.07;1.97;;;20.60;76.10;21.50;99595.00;;;;6270525;22;20149;-52
2023/08/06 08:47:43;;;;;;;1.80;1.70;;;20.60;76.10;21.50;99592.00;;;;6217234;22;20289;-52
2023/08/06 08:50:10;;;;;;;1.93;1.83;;;20.60;76.10;21.50;99596.00;;;;6269818;22;20490;-51
2023/08/06 08:52:37;;;;;;;1.80;1.70;;;20.50;76.00;21.50;99594.00;;;;6271162;22;20664;-52
2023/08/06 08:55:03;;;;;;;2.33;1.90;;;20.60;76.20;21.50;99594.00;;;;6268617;22;20160;-52
2023/08/06 08:57:29;;;;;;;2.80;1.90;;;20.50;76.20;21.40;99594.00;;;;6269605;22;20153;-52
2023/08/06 08:59:55;;;;;;;3.33;2.10;;;20.60;76.30;21.50;99609.00;;;;6269048;22;20157;-53
2023/08/06 09:02:21;;;;;;;5.43;2.30;;;20.50;76.30;21.50;99610.00;;;;6267873;22;20180;-52
2023/08/06 09:04:48;;;;;;;4.03;2.20;;;20.50;76.30;21.50;99612.00;;;;6268394;22;20156;-52
2023/08/06 09:07:16;;;;;;;5.03;2.00;;;20.50;76.50;21.50;99609.00;;;;6242461;22;20214;-52
2023/08/06 09:09:42;;;;;;;2.97;2.10;;;20.60;76.60;21.50;99615.00;;;;6244383;22;20145;-53
2023/08/06 09:12:15;;;;;;;4.13;2.20;;;20.50;76.40;21.50;99612.00;;;;6242612;22;20254;-51
2023/08/06 09:14:41;;;;;;;3.40;1.97;;;20.60;76.50;21.50;99618.00;;;;6243792;22;20493;-52
2023/08/06 09:17:07;;;;;;;2.20;2.00;;;20.60;76.60;21.50;99623.00;;;;6269444;22;20161;-51
2023/08/06 09:19:33;;;;;;;3.60;2.03;;;20.50;76.60;21.50;99615.00;;;;6270196;22;20236;-53
2023/08/06 09:21:59;;;;;;;4.87;2.30;;;20.60;76.80;21.50;99603.00;;;;6270315;22;20175;-53
2023/08/06 09:24:26;;;;;;;3.13;2.03;;;20.60;77.20;21.50;99616.00;;;;6269300;22;20199;-52
2023/08/06 09:26:51;;;;;;;5.40;2.30;;;20.50;78.20;21.50;99617.00;;;;6242680;22;20589;-52
2023/08/06 09:29:17;;;;;;;4.77;2.30;;;20.50;77.90;21.50;99626.00;;;;6271002;22;20193;-51
2023/08/06 09:31:47;;;;;;;3.43;2.03;;;20.50;78.30;21.50;99614.00;;;;6269722;22;20168;-54
2023/08/06 09:34:24;;;;;;;5.43;2.17;;;20.60;78.50;21.50;99629.00;;;;6272788;22;20137;-51
2023/08/06 09:36:51;;;;;;;4.17;2.70;;;20.50;78.80;21.50;99620.00;;;;6270441;22;20148;-52
2023/08/06 09:39:35;;;;;;;5.27;2.43;;;20.60;79.20;21.60;99620.00;;;;6245583;22;20222;-52
2023/08/06 09:42:01;;;;;;;3.13;2.27;;;20.60;79.70;21.60;99624.00;;;;6271858;22;20625;-51
2023/08/06 09:44:30;;;;;;;4.20;2.50;;;20.60;80.10;21.60;99620.00;;;;6265724;22;20153;-53
2023/08/06 09:46:57;;;;;;;4.47;2.40;;;20.60;80.10;21.60;99620.00;;;;6270648;22;20153;-52
2023/08/06 09:49:33;;;;;;;4.97;2.63;;;20.60;80.10;21.60;99617.00;;;;6249240;22;20180;-52
2023/08/06 09:51:59;;;;;;;5.73;2.53;;;20.60;80.40;21.60;99635.00;;;;6270077;22;20609;-52
2023/08/06 09:54:26;;;;;;;5.43;2.30;;;20.60;80.30;21.60;99636.00;;;;6270722;22;20173;-52
2023/08/06 09:56:53;;;;;;;4.70;2.67;;;20.60;80.20;21.60;99634.00;;;;6270710;22;20141;-51
2023/08/06 09:59:19;;;;;;;4.47;2.60;;;20.60;80.30;21.60;99643.00;;;;6269199;22;20149;-52
2023/08/06 10:01:45;;;;;;;4.43;2.43;;;20.70;80.60;21.60;99647.00;;;;6276144;22;20188;-52
2023/08/06 10:04:11;;;;;;;4.43;2.50;;;20.70;80.50;21.60;99647.00;;;;6250686;22;20149;-52
2023/08/06 10:06:37;;;;;;;3.17;2.30;;;20.70;80.50;21.60;99647.00;;;;6267724;22;20156;-53
2023/08/06 10:09:04;;;;;;;6.63;2.50;;;20.70;80.70;21.70;99643.00;;;;6268153;22;20509;-53
2023/08/06 10:11:30;;;;;;;2.93;2.30;;;20.70;80.70;21.70;99648.00;;;;6268870;22;20176;-52
2023/08/06 10:14:03;;;;;;;4.13;2.27;;;20.70;80.70;21.70;99652.00;;;;6270366;22;20145;-51
2023/08/06 10:16:29;;;;;;;4.70;2.20;;;20.80;80.80;21.70;99669.00;;;;6218891;22;20164;-51
2023/08/06 10:18:55;;;;;;;5.13;2.50;;;20.80;80.70;21.70;99683.00;;;;6245365;22;20141;-52
2023/08/06 10:21:23;;;;;;;3.00;2.30;;;20.90;80.70;21.60;99681.00;;;;6271529;22;20327;-53
2023/08/06 10:23:54;;;;;;;5.80;2.27;;;20.90;80.90;21.70;99680.00;;;;6246092;22;20152;-53
2023/08/06 10:26:20;;;;;;;4.37;2.20;;;20.90;80.80;21.70;99651.00;;;;6269873;22;20484;-52
2023/08/06 10:28:46;;;;;;;3.00;2.27;;;20.90;80.70;21.70;99680.00;;;;6269812;22;20263;-53
2023/08/06 10:31:11;;;;;;;4.83;2.67;;;21.00;80.90;21.70;99681.00;;;;6271324;22;20530;-53
2023/08/06 10:33:47;;;;;;;10.93;2.30;;;20.90;80.90;21.70;99681.00;;;;6270568;22;20255;-52
2023/08/06 10:36:14;;;;;;;7.53;2.33;;;21.00;80.90;21.70;99679.00;;;;6270928;22;20144;-52
2023/08/06 10:38:49;;;;;;;3.47;2.37;;;21.00;80.90;21.70;99681.00;;;;6270758;22;20207;-52
2023/08/06 10:41:29;;;;;;;4.90;2.30;;;20.90;80.90;21.70;99684.00;;;;6271353;22;20168;-52
2023/08/06 10:44:10;;;;;;;3.77;2.13;;;21.00;80.90;21.70;99689.00;;;;6271006;22;20149;-53
2023/08/06 10:46:36;;;;;;;4.37;2.47;;;21.00;80.90;21.70;99684.00;;;;6271047;22;20605;-53
2023/08/06 10:49:04;;;;;;;2.70;2.30;;;21.00;81.00;21.80;99696.00;;;;6272026;22;20678;-53
2023/08/06 10:51:30;;;;;;;4.17;2.30;;;21.00;81.00;21.80;99696.00;;;;6244970;22;20165;-54
2023/08/06 10:53:57;;;;;;;6.50;2.43;;;21.00;80.90;21.80;99713.00;;;;6271997;22;20159;-53